createdAt,value
2023-05-11T00:06:01.909Z,9.39
2023-05-11T00:16:06.000Z,9.22
2023-05-11T00:26:10.530Z,9.10
2023-05-11T00:36:14.063Z,8.99
2023-05-11T00:46:18.350Z,8.95
2023-05-11T00:56:22.508Z,8.89
2023-05-11T01:06:31.891Z,8.82
2023-05-11T01:16:34.012Z,8.68
2023-05-11T01:27:00.091Z,8.63
2023-05-11T01:37:10.415Z,8.51
2023-05-11T01:47:16.128Z,8.47
2023-05-11T01:57:20.738Z,8.48
2023-05-11T02:07:26.442Z,8.43
2023-05-11T02:17:35.488Z,8.24
2023-05-11T02:27:38.664Z,8.14
2023-05-11T02:37:46.633Z,7.94
2023-05-11T02:47:49.944Z,7.85
2023-05-11T02:57:55.569Z,7.87
2023-05-11T03:08:01.719Z,7.83
2023-05-11T03:18:06.296Z,7.88
2023-05-11T03:28:11.819Z,7.84
2023-05-11T03:38:17.486Z,8.21
2023-05-11T03:48:22.459Z,8.86
2023-05-11T03:58:26.538Z,8.57
2023-05-11T04:08:30.202Z,9.04
2023-05-11T04:18:34.182Z,9.21
2023-05-11T04:28:37.945Z,9.09
2023-05-11T04:38:41.709Z,9.96
2023-05-11T04:48:45.743Z,10.01
2023-05-11T04:58:49.851Z,11.34
2023-05-11T05:08:57.287Z,13.30
2023-05-11T05:19:01.237Z,13.99
2023-05-11T05:29:04.434Z,14.17
2023-05-11T05:39:12.525Z,14.67
2023-05-11T05:49:16.973Z,14.04
2023-05-11T05:59:20.767Z,13.76
2023-05-11T06:09:24.832Z,14.26
2023-05-11T06:19:28.595Z,14.55
2023-05-11T06:29:33.381Z,15.46
2023-05-11T06:39:37.730Z,16.06
2023-05-11T06:49:42.263Z,16.26
2023-05-11T06:59:50.656Z,16.47
2023-05-11T07:09:54.781Z,16.39
2023-05-11T07:20:03.144Z,16.41
2023-05-11T07:30:07.782Z,16.66
2023-05-11T07:40:12.316Z,16.87
2023-05-11T07:50:17.201Z,17.08
2023-05-11T08:00:25.588Z,17.02
2023-05-11T08:10:29.451Z,17.27
2023-05-11T08:20:33.522Z,17.50
2023-05-11T08:30:39.245Z,17.31
2023-05-11T08:40:47.470Z,17.43
2023-05-11T09:00:55.756Z,17.44
2023-05-11T09:11:00.492Z,17.60
2023-05-11T09:21:03.519Z,18.05
2023-05-11T09:31:07.391Z,18.35
2023-05-11T09:41:11.088Z,18.62
2023-05-11T09:51:14.559Z,18.93
2023-05-11T10:01:17.159Z,19.02
2023-05-11T10:11:22.354Z,19.46
2023-05-11T10:21:28.659Z,19.74
2023-05-11T10:31:33.402Z,19.50
2023-05-11T10:41:48.494Z,19.31
2023-05-11T10:52:06.419Z,19.35
2023-05-11T11:02:10.418Z,19.35
2023-05-11T11:12:14.428Z,19.70
2023-05-11T11:22:46.449Z,19.45
2023-05-11T11:32:51.901Z,19.36
2023-05-11T11:43:09.622Z,19.30
2023-05-11T11:53:13.152Z,19.50
2023-05-11T12:03:22.897Z,19.55
2023-05-11T12:13:26.970Z,19.93
2023-05-11T12:23:32.349Z,20.21
2023-05-11T12:33:45.141Z,20.19
2023-05-11T12:43:49.162Z,20.13
2023-05-11T12:53:53.301Z,20.22
2023-05-11T13:03:57.074Z,20.20
2023-05-11T13:14:16.564Z,20.42
2023-05-11T13:24:44.405Z,20.40
2023-05-11T13:34:47.369Z,20.26
2023-05-11T13:44:50.794Z,20.24
2023-05-11T13:54:54.510Z,20.24
2023-05-11T14:05:01.395Z,20.19
2023-05-11T14:15:06.852Z,20.12
2023-05-11T14:35:14.757Z,20.37
2023-05-11T14:45:42.500Z,19.70
2023-05-11T14:55:46.252Z,19.47
2023-05-11T15:05:53.422Z,19.82
2023-05-11T15:15:57.619Z,19.65
2023-05-11T15:26:01.734Z,19.49
2023-05-11T15:36:05.846Z,19.61
2023-05-11T15:46:09.585Z,19.52
2023-05-11T15:56:13.333Z,19.26
2023-05-11T16:06:17.163Z,18.91
2023-05-11T16:16:20.665Z,18.66
2023-05-11T16:26:28.977Z,18.65
2023-05-11T16:36:33.695Z,18.58
2023-05-11T16:46:37.822Z,18.42
2023-05-11T16:56:42.359Z,18.34
2023-05-11T17:06:49.497Z,18.20
2023-05-11T17:16:53.479Z,18.06
2023-05-11T17:26:57.129Z,17.85
2023-05-11T17:37:00.653Z,17.64
2023-05-11T17:47:03.687Z,17.38
2023-05-11T17:57:11.038Z,17.08
2023-05-11T18:07:14.638Z,16.76
2023-05-11T18:17:18.033Z,16.45
2023-05-11T18:27:21.840Z,16.14
2023-05-11T18:37:25.410Z,15.84
2023-05-11T18:47:29.316Z,15.58
2023-05-11T18:57:34.037Z,15.35
2023-05-11T19:07:38.713Z,15.14
2023-05-11T19:17:42.383Z,14.95
2023-05-11T19:27:46.310Z,14.73
2023-05-11T19:37:50.703Z,14.49
2023-05-11T19:47:54.420Z,14.23
2023-05-11T19:57:58.402Z,14.03
2023-05-11T20:08:02.780Z,13.89
2023-05-11T20:18:07.376Z,13.72
2023-05-11T20:28:11.851Z,13.57
2023-05-11T20:38:16.220Z,13.38
2023-05-11T20:48:28.875Z,13.22
2023-05-11T20:58:40.370Z,12.95
2023-05-11T21:08:44.135Z,12.71
2023-05-11T21:18:47.952Z,12.50
2023-05-11T21:28:50.932Z,12.28
2023-05-11T21:38:54.666Z,12.09
2023-05-11T21:48:58.527Z,11.92
2023-05-11T21:59:02.115Z,11.76
2023-05-11T22:09:06.506Z,11.58
2023-05-11T22:19:10.537Z,11.45
2023-05-11T22:29:14.604Z,11.28
2023-05-11T22:39:18.667Z,11.16
2023-05-11T22:49:47.276Z,10.95
2023-05-11T22:59:55.106Z,10.83
2023-05-11T23:09:59.980Z,10.75
2023-05-11T23:20:03.773Z,10.65
2023-05-11T23:30:09.592Z,10.49
2023-05-11T23:40:13.433Z,10.39
2023-05-11T23:50:16.122Z,10.27
